Time;durP1;ratioP1;P1;durP2;ratioP2;P2;SDS_P1;SDS_P2;PMS_P1;PMS_P2;Temp;Humidity;BMP_temperature;BMP_pressure;BME280_temperature;BME280_humidity;BME280_pressure;Samples;Min_cycle;Max_cycle;Signal;HPM_P1;HPM_P2
2023/10/01 00:00:15;;;;;;;6.40;4.07;;;;;;;8.46;51.63;96466.44;4921037;29;20088;-78
2023/10/01 00:02:41;;;;;;;7.43;4.07;;;;;;;8.47;51.49;96459.31;4915387;29;20079;-78
2023/10/01 00:05:07;;;;;;;8.02;4.10;;;;;;;8.43;52.42;96464.06;4923203;29;20098;-78
2023/10/01 00:07:39;;;;;;;11.13;5.35;;;;;;;8.42;51.79;96463.25;4935061;29;20055;-77
2023/10/01 00:10:10;;;;;;;7.72;4.38;;;;;;;8.44;52.37;96457.81;4899557;29;20675;-79
2023/10/01 00:12:36;;;;;;;7.97;4.43;;;;;;;8.45;51.89;96459.47;4933488;28;20052;-78
2023/10/01 00:15:02;;;;;;;8.05;4.20;;;;;;;8.41;51.55;96455.44;4928878;29;20081;-78
2023/10/01 00:17:28;;;;;;;6.82;4.03;;;;;;;8.39;52.87;96457.38;4923988;29;20069;-77
2023/10/01 00:19:53;;;;;;;6.85;4.00;;;;;;;8.42;52.73;96462.41;4909693;29;20606;-77
2023/10/01 00:22:19;;;;;;;7.30;4.13;;;;;;;8.39;52.13;96457.38;4930380;29;20079;-77
2023/10/01 00:24:44;;;;;;;7.75;4.38;;;;;;;8.42;52.22;96452.63;4935406;29;20050;-77
2023/10/01 00:27:10;;;;;;;7.55;4.40;;;;;;;8.46;52.66;96453.16;4926937;29;20072;-77
2023/10/01 00:29:35;;;;;;;8.88;4.50;;;;;;;8.51;52.49;96450.09;4918483;29;20080;-77
2023/10/01 00:32:00;;;;;;;7.72;4.53;;;;;;;8.50;52.13;96438.63;4914275;29;20119;-76
2023/10/01 00:34:26;;;;;;;5.85;4.00;;;;;;;8.51;51.86;96439.47;4917346;29;20090;-76
2023/10/01 00:36:52;;;;;;;7.55;4.35;;;;;;;8.44;49.83;96429.44;4935264;29;20046;-77
2023/10/01 00:39:18;;;;;;;4.60;3.38;;;;;;;8.41;51.70;96432.41;4912443;29;20104;-76
2023/10/01 00:41:44;;;;;;;7.22;3.72;;;;;;;8.40;52.56;96436.00;4932217;29;20087;-77
2023/10/01 00:44:10;;;;;;;7.25;3.97;;;;;;;8.39;51.59;96434.34;4916618;29;20722;-75
2023/10/01 00:46:36;;;;;;;5.50;3.78;;;;;;;8.38;52.30;96435.34;4929974;29;20948;-77
2023/10/01 00:49:01;;;;;;;6.80;4.15;;;;;;;8.33;53.18;96426.13;4934245;29;20068;-77
2023/10/01 00:51:31;;;;;;;8.95;4.55;;;;;;;8.32;53.66;96429.78;4912493;29;20076;-77
2023/10/01 00:53:57;;;;;;;8.80;4.53;;;;;;;8.40;53.96;96433.34;4917490;29;20093;-76
2023/10/01 00:56:22;;;;;;;8.02;4.50;;;;;;;8.37;51.67;96427.50;4924207;29;20059;-76
2023/10/01 00:58:48;;;;;;;6.65;4.18;;;;;;;8.47;54.00;96428.31;4930881;28;20533;-75
2023/10/01 01:01:16;;;;;;;8.02;4.43;;;;;;;8.57;52.85;96428.28;4915700;29;20045;-77
2023/10/01 01:03:43;;;;;;;7.00;4.10;;;;;;;8.51;52.95;96427.06;4916869;29;20196;-76
2023/10/01 01:06:17;;;;;;;6.85;4.18;;;;;;;8.54;52.35;96426.75;4909451;29;20164;-76
2023/10/01 01:08:56;;;;;;;8.93;4.30;;;;;;;8.61;52.77;96420.88;4930510;29;20167;-75
2023/10/01 01:11:22;;;;;;;9.23;4.03;;;;;;;8.70;52.37;96427.94;4911893;29;20079;-77
2023/10/01 01:13:49;;;;;;;7.25;4.18;;;;;;;8.74;52.13;96431.16;4904616;29;20085;-75
2023/10/01 01:16:19;;;;;;;7.60;4.35;;;;;;;8.70;52.68;96433.25;4930998;29;20143;-76
2023/10/01 01:18:46;;;;;;;8.10;4.40;;;;;;;8.68;52.32;96433.41;4916804;29;20084;-76
2023/10/01 01:21:13;;;;;;;7.45;4.03;;;;;;;8.75;52.78;96425.69;4912870;29;20140;-77
2023/10/01 01:23:45;;;;;;;7.57;4.38;;;;;;;8.81;52.20;96425.09;4919553;29;20136;-77
2023/10/01 01:26:13;;;;;;;7.75;4.25;;;;;;;8.86;52.50;96419.34;4916848;29;20479;-78
2023/10/01 01:28:39;;;;;;;7.93;4.03;;;;;;;8.87;52.17;96421.03;4941213;29;20048;-77
2023/10/01 01:31:05;;;;;;;8.35;4.43;;;;;;;8.91;52.37;96422.41;4934000;29;20330;-77
2023/10/01 01:33:32;;;;;;;10.30;4.97;;;;;;;8.94;51.93;96407.97;4931759;29;20446;-78
2023/10/01 01:36:03;;;;;;;7.82;4.10;;;;;;;8.92;52.21;96400.19;4935759;29;20059;-77
2023/10/01 01:38:31;;;;;;;7.32;4.35;;;;;;;8.93;51.68;96401.00;4919259;29;20105;-78
2023/10/01 01:40:56;;;;;;;8.93;4.83;;;;;;;8.93;51.64;96401.00;4933018;29;20048;-78
2023/10/01 01:43:22;;;;;;;8.43;4.07;;;;;;;8.86;51.60;96400.78;4913466;29;20321;-79
2023/10/01 01:46:00;;;;;;;7.43;4.05;;;;;;;8.82;51.59;96397.59;4930201;29;20064;-78
2023/10/01 01:48:33;;;;;;;8.20;4.07;;;;;;;8.85;51.95;96390.28;4901310;29;20154;-77
2023/10/01 01:51:02;;;;;;;8.18;4.63;;;;;;;8.81;50.86;96392.41;4928845;29;20075;-78
2023/10/01 01:53:41;;;;;;;5.85;3.55;;;;;;;8.78;51.93;96387.41;4930893;29;20087;-78
2023/10/01 01:56:10;;;;;;;7.05;3.97;;;;;;;8.74;51.55;96381.53;4919343;29;20079;-78
2023/10/01 01:58:40;;;;;;;5.75;3.45;;;;;;;8.69;50.77;96381.16;4908253;29;20112;-77
2023/10/01 02:01:08;;;;;;;7.05;3.75;;;;;;;8.67;51.84;96383.13;4936416;29;20389;-79
2023/10/01 02:03:46;;;;;;;7.97;4.00;;;;;;;8.54;52.24;96381.63;4922689;28;20086;-76
2023/10/01 02:06:13;;;;;;;8.90;4.13;;;;;;;8.60;52.50;96380.19;4913408;29;20091;-78
2023/10/01 02:08:54;;;;;;;8.23;4.30;;;;;;;8.68;52.56;96385.59;4924900;29;20053;-77
2023/10/01 02:11:20;;;;;;;7.03;4.15;;;;;;;8.75;51.37;96375.25;4922017;29;20074;-78
2023/10/01 02:13:51;;;;;;;9.43;4.38;;;;;;;8.74;51.86;96367.44;4917956;29;20723;-78
2023/10/01 02:19:11;;;;;;;7.75;3.92;;;;;;;8.66;51.34;96365.50;4936060;29;20082;-77
2023/10/01 02:21:43;;;;;;;7.18;3.80;;;;;;;8.61;51.91;96359.81;4934733;29;20092;-78
2023/10/01 02:24:12;;;;;;;8.68;4.53;;;;;;;8.49;49.84;96369.78;4939035;29;20230;-77
2023/10/01 02:26:39;;;;;;;6.70;4.05;;;;;;;8.53;51.68;96369.34;4939843;29;20081;-79
2023/10/01 02:29:05;;;;;;;7.72;4.55;;;;;;;8.51;51.12;96363.38;4925739;29;20048;-79
2023/10/01 02:31:34;;;;;;;7.13;3.95;;;;;;;8.54;52.03;96360.38;4944545;28;20166;-77
2023/10/01 02:34:01;;;;;;;6.75;4.10;;;;;;;8.55;51.66;96364.75;4945621;29;20114;-79
2023/10/01 02:36:26;;;;;;;9.13;4.18;;;;;;;8.50;51.82;96368.81;4916084;29;20134;-77
2023/10/01 02:38:53;;;;;;;7.95;4.28;;;;;;;8.56;52.43;96362.91;4929416;29;20077;-77
2023/10/01 02:41:25;;;;;;;7.75;4.50;;;;;;;8.56;52.71;96374.38;4932066;29;20111;-77
2023/10/01 02:43:55;;;;;;;10.30;4.80;;;;;;;8.66;52.02;96379.63;4902643;29;20592;-77
2023/10/01 02:46:26;;;;;;;9.65;4.82;;;;;;;8.70;52.58;96380.16;4929086;29;20086;-77
2023/10/01 02:48:55;;;;;;;9.77;4.57;;;;;;;8.79;52.18;96376.63;4928635;29;20063;-77
2023/10/01 02:51:32;;;;;;;;;;;;;;;8.79;51.77;96376.63;4927982;29;20073;-78
2023/10/01 02:54:06;;;;;;;7.35;4.00;;;;;;;8.77;51.04;96375.94;4926956;29;19966;-77
2023/10/01 02:56:33;;;;;;;9.07;3.70;;;;;;;8.70;50.80;96369.53;4913946;29;20135;-77
2023/10/01 02:59:15;;;;;;;7.95;4.03;;;;;;;8.62;50.91;96370.28;4917688;29;20166;-77
2023/10/01 03:01:46;;;;;;;10.15;4.93;;;;;;;8.59;49.72;96361.75;4911952;29;20184;-77
2023/10/01 03:04:15;;;;;;;7.65;4.63;;;;;;;8.37;49.85;96362.00;4925484;29;20058;-77
2023/10/01 03:06:55;;;;;;;7.13;4.03;;;;;;;8.33;50.71;96354.50;4911893;29;20196;-77
2023/10/01 03:09:33;;;;;;;7.13;3.80;;;;;;;8.33;51.63;96357.97;4907492;29;20059;-77
2023/10/01 03:14:44;;;;;;;8.95;3.83;;;;;;;8.24;52.48;96362.34;4930400;29;20369;-77
2023/10/01 03:17:17;;;;;;;8.30;4.30;;;;;;;8.17;51.39;96353.28;4926853;29;20567;-77
2023/10/01 03:19:46;;;;;;;8.30;4.38;;;;;;;8.17;51.75;96355.94;4915034;29;20656;-77
2023/10/01 03:22:22;;;;;;;7.40;3.90;;;;;;;8.09;51.67;96356.66;4925115;29;20063;-78
2023/10/01 03:24:48;;;;;;;9.70;4.47;;;;;;;8.12;52.36;96353.72;4926598;29;20060;-77
2023/10/01 03:27:20;;;;;;;8.10;4.00;;;;;;;8.15;51.59;96357.88;4936725;29;20080;-77
2023/10/01 03:29:53;;;;;;;6.68;4.25;;;;;;;8.19;51.70;96356.63;4935613;29;20078;-77
2023/10/01 03:32:28;;;;;;;5.75;3.60;;;;;;;8.25;52.73;96365.81;4936230;29;20053;-77
2023/10/01 03:35:03;;;;;;;7.03;3.75;;;;;;;8.25;51.93;96358.69;4913862;29;20080;-77
2023/10/01 03:37:29;;;;;;;5.90;3.55;;;;;;;8.24;51.90;96364.16;4918680;29;20063;-77
2023/10/01 03:40:05;;;;;;;7.13;3.47;;;;;;;8.22;51.33;96351.03;4932477;29;20142;-77
2023/10/01 03:42:33;;;;;;;7.78;3.83;;;;;;;8.24;51.90;96358.84;4931936;29;20090;-76
2023/10/01 03:47:34;;;;;;;9.55;4.10;;;;;;;8.14;51.48;96359.72;4929035;29;20075;-77
2023/10/01 03:50:00;;;;;;;7.28;4.03;;;;;;;8.10;51.65;96358.34;4932111;29;20078;-77
2023/10/01 03:52:39;;;;;;;7.50;4.57;;;;;;;8.11;51.97;96359.16;4929256;29;20117;-77
2023/10/01 03:55:25;;;;;;;7.40;4.25;;;;;;;8.09;51.86;96356.66;4918660;29;20553;-77
2023/10/01 03:58:18;;;;;;;9.35;4.10;;;;;;;8.13;51.57;96359.88;4927134;29;20082;-77
2023/10/01 04:03:04;;;;;;;7.20;3.65;;;;;;;8.15;52.79;96357.88;4931669;29;20108;-77
2023/10/01 04:05:34;;;;;;;7.75;3.55;;;;;;;8.19;52.37;96359.28;4925198;29;20097;-77
2023/10/01 04:08:11;;;;;;;9.40;3.78;;;;;;;8.18;50.92;96360.25;4934485;29;20750;-77
2023/10/01 04:10:38;;;;;;;6.25;3.72;;;;;;;8.07;50.90;96366.59;4911668;29;20106;-76
2023/10/01 04:13:13;;;;;;;5.70;3.65;;;;;;;8.08;51.54;96362.94;4932146;29;20214;-76
2023/10/01 04:15:46;;;;;;;7.68;3.88;;;;;;;8.07;50.93;96363.94;4925104;29;20061;-76
2023/10/01 04:20:36;;;;;;;7.57;4.47;;;;;;;8.04;50.55;96365.06;4930116;29;20140;-77
2023/10/01 04:23:04;;;;;;;10.18;4.57;;;;;;;8.04;51.15;96364.22;4936195;29;20077;-76
2023/10/01 04:25:39;;;;;;;7.13;4.13;;;;;;;8.02;51.37;96366.16;4936189;29;20367;-76
2023/10/01 04:28:08;;;;;;;7.63;4.40;;;;;;;8.05;51.72;96361.41;4936837;28;20183;-77
2023/10/01 04:30:37;;;;;;;7.00;3.97;;;;;;;8.08;51.29;96370.06;4903938;29;20081;-77
2023/10/01 04:33:17;;;;;;;7.45;4.38;;;;;;;8.10;51.69;96370.75;4921138;29;20060;-77
2023/10/01 04:35:55;;;;;;;7.47;4.18;;;;;;;8.18;51.20;96369.06;4923795;29;20093;-77
2023/10/01 04:38:21;;;;;;;8.18;4.03;;;;;;;8.23;51.21;96368.59;4933343;29;20189;-77
2023/10/01 04:40:48;;;;;;;9.30;4.70;;;;;;;8.24;51.16;96372.97;4938365;29;20061;-77
2023/10/01 04:43:19;;;;;;;8.00;4.30;;;;;;;8.21;51.69;96370.59;4934586;29;20095;-76
2023/10/01 04:45:47;;;;;;;7.53;4.00;;;;;;;8.17;52.04;96361.25;4913015;29;20167;-77
2023/10/01 04:48:16;;;;;;;;;;;;;;;8.14;51.34;96362.38;4920992;29;20856;-77
2023/10/01 04:50:43;;;;;;;7.45;3.85;;;;;;;8.16;51.75;96360.41;4932141;29;19960;-77
2023/10/01 04:53:13;;;;;;;8.75;3.83;;;;;;;8.16;51.75;96359.59;4918466;29;20057;-76
2023/10/01 04:55:41;;;;;;;8.30;4.13;;;;;;;8.19;52.24;96361.91;4934636;29;20059;-78
2023/10/01 04:58:12;;;;;;;5.35;3.38;;;;;;;8.24;51.86;96358.84;4941874;29;20085;-77
2023/10/01 05:00:40;;;;;;;5.60;4.10;;;;;;;8.29;51.79;96361.88;4922252;29;20051;-78
2023/10/01 05:03:06;;;;;;;7.03;3.90;;;;;;;8.30;50.80;96361.75;4940879;29;20060;-77
2023/10/01 05:05:33;;;;;;;7.88;4.13;;;;;;;8.28;50.76;96360.22;4935949;29;20700;-79
2023/10/01 05:07:58;;;;;;;6.38;3.80;;;;;;;8.24;52.11;96370.31;4942717;29;20512;-78
2023/10/01 05:10:26;;;;;;;6.97;3.83;;;;;;;8.25;51.07;96365.81;4940141;29;20329;-78
2023/10/01 05:12:58;;;;;;;7.57;3.83;;;;;;;8.28;51.88;96365.53;4921054;29;20144;-77
2023/10/01 05:15:35;;;;;;;6.15;3.88;;;;;;;8.31;52.20;96373.22;4897506;29;20076;-78
2023/10/01 05:18:04;;;;;;;6.60;3.70;;;;;;;8.34;51.76;96374.72;4915746;29;20684;-78
2023/10/01 05:20:30;;;;;;;6.53;3.60;;;;;;;8.38;51.60;96369.00;4944893;29;20076;-77
2023/10/01 05:22:58;;;;;;;7.05;3.90;;;;;;;8.41;51.71;96374.03;4946033;29;20080;-78
2023/10/01 05:25:27;;;;;;;7.80;3.80;;;;;;;8.43;51.60;96369.38;4925096;29;20069;-79
2023/10/01 05:27:58;;;;;;;7.25;3.80;;;;;;;8.44;51.33;96371.06;4932974;29;20062;-78
2023/10/01 05:30:42;;;;;;;7.57;3.67;;;;;;;8.48;51.42;96374.25;4932921;29;20104;-78
2023/10/01 05:33:11;;;;;;;6.38;3.72;;;;;;;8.46;51.39;96378.88;4940132;29;20127;-77
2023/10/01 05:35:48;;;;;;;9.65;3.67;;;;;;;8.45;51.54;96382.50;4932637;29;20071;-79
2023/10/01 05:38:16;;;;;;;6.00;3.70;;;;;;;8.46;51.50;96388.66;4930236;28;20094;-77
2023/10/01 05:40:44;;;;;;;6.97;3.63;;;;;;;8.48;51.77;96382.22;4947793;29;20110;-80
2023/10/01 05:43:13;;;;;;;6.65;3.67;;;;;;;8.51;51.26;96389.91;4934598;29;20942;-78
2023/10/01 05:45:41;;;;;;;9.82;3.70;;;;;;;8.56;51.52;96394.75;4929822;29;20077;-77
2023/10/01 05:48:18;;;;;;;8.02;3.75;;;;;;;8.59;51.63;96393.63;4926536;29;20057;-78
2023/10/01 05:50:45;;;;;;;6.63;3.95;;;;;;;8.65;51.32;96391.22;4941271;29;20079;-77
2023/10/01 05:53:10;;;;;;;7.65;4.15;;;;;;;8.69;51.53;96394.41;4940467;29;20051;-77
2023/10/01 05:55:40;;;;;;;8.52;4.50;;;;;;;8.76;51.33;96394.66;4942767;29;20759;-77
2023/10/01 05:58:16;;;;;;;8.00;4.15;;;;;;;8.86;51.48;96400.78;4937814;29;20078;-78
2023/10/01 06:00:45;;;;;;;7.03;3.72;;;;;;;8.97;51.66;96396.28;4929151;29;20107;-78
2023/10/01 06:03:18;;;;;;;8.48;4.20;;;;;;;9.05;52.09;96402.50;4922254;29;20326;-78
2023/10/01 06:05:57;;;;;;;8.23;4.43;;;;;;;9.22;51.39;96400.03;4909910;29;20085;-77
2023/10/01 06:08:26;;;;;;;6.93;3.92;;;;;;;9.31;50.77;96396.47;4922461;29;20090;-77
2023/10/01 06:11:09;;;;;;;;;;;;;;;9.36;50.47;96397.84;4911234;29;20681;-77
2023/10/01 06:13:37;;;;;;;5.18;3.20;;;;;;;9.43;49.77;96394.44;4908571;29;19954;-77
2023/10/01 06:16:11;;;;;;;6.13;3.33;;;;;;;9.49;50.08;96402.78;4920958;29;20197;-77
2023/10/01 06:18:41;;;;;;;7.25;3.45;;;;;;;9.57;49.27;96403.69;4923398;29;20080;-77
2023/10/01 06:21:09;;;;;;;7.03;3.67;;;;;;;9.63;49.27;96404.91;4924155;29;20537;-77
2023/10/01 06:23:49;;;;;;;7.10;3.70;;;;;;;9.66;49.12;96401.13;4924834;29;20052;-77
2023/10/01 06:26:19;;;;;;;6.72;3.72;;;;;;;9.74;49.41;96401.19;4903754;29;20036;-77
2023/10/01 06:28:45;;;;;;;6.13;3.80;;;;;;;9.90;49.64;96410.28;4924299;29;20042;-77
2023/10/01 06:31:10;;;;;;;6.40;3.78;;;;;;;10.02;48.93;96405.53;4904380;29;20075;-77
2023/10/01 06:33:38;;;;;;;5.90;3.50;;;;;;;10.14;48.70;96407.00;4922873;29;20863;-77
2023/10/01 06:36:16;;;;;;;5.85;3.80;;;;;;;10.25;48.65;96410.38;4926054;29;20175;-77
2023/10/01 06:38:44;;;;;;;10.82;4.88;;;;;;;10.33;47.90;96410.44;4909627;29;20075;-77
2023/10/01 06:41:16;;;;;;;6.32;3.67;;;;;;;10.41;48.01;96410.50;4920063;29;20044;-77
2023/10/01 06:43:54;;;;;;;6.95;3.85;;;;;;;10.55;48.05;96405.56;4904867;29;20630;-77
2023/10/01 06:46:28;;;;;;;6.38;3.88;;;;;;;10.70;47.86;96411.13;4909412;29;20141;-77
2023/10/01 06:48:58;;;;;;;6.57;4.30;;;;;;;10.90;47.61;96416.19;4908418;29;20561;-77
2023/10/01 06:51:25;;;;;;;6.43;3.95;;;;;;;10.96;47.69;96419.09;4905130;29;20700;-77
2023/10/01 06:53:58;;;;;;;6.70;4.00;;;;;;;11.01;47.52;96426.56;4905317;29;20072;-77
2023/10/01 06:56:29;;;;;;;6.38;3.75;;;;;;;11.18;47.87;96421.34;4923598;29;20037;-76
2023/10/01 07:01:34;;;;;;;7.87;3.57;;;;;;;11.59;47.27;96421.41;4919535;29;20983;-77
2023/10/01 07:04:05;;;;;;;6.90;3.63;;;;;;;11.76;47.38;96416.09;4889393;29;20713;-77
2023/10/01 07:06:36;;;;;;;6.97;3.83;;;;;;;11.96;47.13;96419.28;4902814;29;20074;-77
2023/10/01 07:09:06;;;;;;;9.88;4.70;;;;;;;12.30;46.77;96422.78;4924660;29;20037;-77
2023/10/01 07:11:33;;;;;;;8.00;4.78;;;;;;;12.52;46.70;96415.06;4903972;29;20035;-77
2023/10/01 07:14:01;;;;;;;12.43;4.80;;;;;;;12.66;46.37;96411.69;4920134;29;20039;-77
2023/10/01 07:16:35;;;;;;;9.10;4.90;;;;;;;12.64;46.42;96421.69;4906362;29;20044;-77
2023/10/01 07:19:04;;;;;;;11.15;5.10;;;;;;;12.86;46.15;96424.66;4904690;29;20051;-75
2023/10/01 07:21:31;;;;;;;8.85;4.65;;;;;;;13.02;45.97;96426.44;4911069;29;20055;-77
2023/10/01 07:23:58;;;;;;;8.55;4.75;;;;;;;13.18;46.27;96425.53;4927203;29;20042;-77
2023/10/01 07:26:24;;;;;;;12.30;4.93;;;;;;;12.98;46.42;96424.28;4899586;29;20151;-77
2023/10/01 07:28:55;;;;;;;8.20;4.60;;;;;;;13.23;46.26;96422.34;4926861;29;20027;-77
2023/10/01 07:31:26;;;;;;;9.85;4.82;;;;;;;13.12;45.46;96418.19;4903863;29;20633;-76
2023/10/01 07:33:55;;;;;;;9.55;4.70;;;;;;;13.24;45.79;96421.34;4906906;29;20469;-77
2023/10/01 07:36:23;;;;;;;10.23;5.05;;;;;;;12.76;46.84;96424.84;4903850;29;20067;-77
2023/10/01 07:38:52;;;;;;;8.02;4.40;;;;;;;13.05;46.90;96425.25;4922073;29;20046;-76
2023/10/01 07:41:20;;;;;;;12.60;4.75;;;;;;;13.41;45.71;96424.75;4888061;29;20027;-77
2023/10/01 07:43:45;;;;;;;9.05;4.25;;;;;;;13.33;46.23;96414.09;4925087;29;20034;-76
2023/10/01 07:46:12;;;;;;;10.13;4.53;;;;;;;14.06;44.30;96420.97;4903759;29;20044;-78
2023/10/01 07:48:47;;;;;;;11.15;5.13;;;;;;;13.77;44.62;96423.31;4904209;29;20035;-77
2023/10/01 07:51:26;;;;;;;10.68;4.53;;;;;;;14.04;44.58;96415.78;4920031;29;20114;-77
2023/10/01 07:53:52;;;;;;;8.73;4.80;;;;;;;14.40;43.49;96418.81;4907514;29;20063;-77
2023/10/01 07:56:21;;;;;;;9.38;4.57;;;;;;;14.53;43.38;96416.34;4907284;29;20028;-77
2023/10/01 07:58:48;;;;;;;13.50;4.70;;;;;;;14.36;44.02;96418.34;4890051;29;20046;-77
2023/10/01 08:04:05;;;;;;;9.63;4.72;;;;;;;13.73;45.35;96424.69;4923960;29;20141;-76
2023/10/01 08:06:32;;;;;;;8.98;4.85;;;;;;;13.35;46.50;96425.44;4922852;29;20054;-77
2023/10/01 08:09:01;;;;;;;9.05;4.75;;;;;;;14.32;45.35;96417.06;4908353;29;20040;-77
2023/10/01 08:14:10;;;;;;;9.63;4.85;;;;;;;14.54;44.38;96426.03;4891368;29;20046;-77
2023/10/01 08:16:48;;;;;;;8.40;4.53;;;;;;;15.31;42.62;96428.50;4918701;29;20031;-77
2023/10/01 08:19:20;;;;;;;9.57;4.97;;;;;;;15.44;42.61;96427.81;4909890;29;20167;-77
2023/10/01 08:21:50;;;;;;;8.73;4.68;;;;;;;15.41;42.81;96435.41;4924312;29;20501;-77
2023/10/01 08:24:20;;;;;;;12.88;4.90;;;;;;;15.60;42.85;96439.38;4905878;29;20024;-77
2023/10/01 08:27:12;;;;;;;11.40;5.30;;;;;;;15.62;42.75;96448.06;4887228;29;20131;-77
2023/10/01 08:32:24;;;;;;;10.18;4.97;;;;;;;14.68;44.67;96439.63;4902460;29;20043;-77
2023/10/01 08:35:02;;;;;;;11.73;5.20;;;;;;;15.63;42.85;96444.34;4903168;29;20064;-77
2023/10/01 08:37:31;;;;;;;10.63;4.97;;;;;;;16.19;41.03;96445.53;4925841;29;20733;-78
2023/10/01 08:39:58;;;;;;;11.65;5.10;;;;;;;16.23;41.47;96449.47;4906546;29;20115;-78
2023/10/01 08:42:28;;;;;;;14.70;5.35;;;;;;;16.30;41.34;96444.16;4926820;29;20046;-78
2023/10/01 08:45:03;;;;;;;11.23;5.13;;;;;;;15.51;42.54;96446.69;4905952;29;20218;-77
2023/10/01 08:47:36;;;;;;;12.48;5.40;;;;;;;15.37;43.09;96448.41;4926950;29;20031;-78
2023/10/01 08:52:58;;;;;;;10.98;5.18;;;;;;;16.42;40.89;96446.34;4924692;29;20068;-78
2023/10/01 08:56:04;;;;;;;10.93;5.28;;;;;;;16.48;41.07;96437.47;4915565;29;20074;-78
2023/10/01 08:58:25;;;;;;;11.90;5.30;;;;;;;16.15;42.01;96449.63;4933774;29;20039;-78
2023/10/01 09:00:53;;;;;;;10.23;5.20;;;;;;;16.50;41.24;96455.09;4931673;29;20036;-78
2023/10/01 09:03:28;;;;;;;12.32;5.30;;;;;;;16.37;41.08;96449.59;4934459;29;20142;-79
2023/10/01 09:06:03;;;;;;;12.70;5.65;;;;;;;15.73;41.96;96452.09;4889649;29;20071;-78
2023/10/01 09:08:31;;;;;;;12.57;5.68;;;;;;;16.27;42.03;96444.53;4913135;29;20080;-77
2023/10/01 09:10:59;;;;;;;11.20;5.35;;;;;;;16.16;41.98;96434.31;4932167;29;20039;-77
2023/10/01 09:13:26;;;;;;;16.88;6.78;;;;;;;16.11;40.61;96445.63;4923029;29;20035;-77
2023/10/01 09:15:55;;;;;;;13.27;6.25;;;;;;;15.67;41.96;96444.81;4905625;29;20039;-77
2023/10/01 09:18:23;;;;;;;13.93;6.72;;;;;;;15.51;42.74;96446.69;4910796;29;20040;-77
2023/10/01 09:21:06;;;;;;;12.85;6.47;;;;;;;15.65;41.94;96444.16;4907519;29;20042;-78
2023/10/01 09:23:56;;;;;;;17.67;6.55;;;;;;;16.44;39.80;96442.44;4909115;29;20560;-78
2023/10/01 09:26:42;;;;;;;12.05;6.63;;;;;;;16.11;40.44;96443.78;4909203;29;20035;-78
2023/10/01 09:29:23;;;;;;;13.80;6.35;;;;;;;16.66;40.18;96442.38;4925720;29;20070;-77
2023/10/01 09:31:59;;;;;;;13.38;7.57;;;;;;;17.03;39.81;96436.75;4901491;29;20024;-78
2023/10/01 09:34:31;;;;;;;13.95;6.40;;;;;;;17.21;39.23;96444.34;4904243;29;20078;-78
2023/10/01 09:37:00;;;;;;;14.27;6.95;;;;;;;16.85;40.23;96437.28;4904932;29;20031;-79
2023/10/01 09:39:41;;;;;;;12.90;6.57;;;;;;;17.36;38.93;96446.88;4891502;29;20035;-81
2023/10/01 09:42:25;;;;;;;12.45;6.65;;;;;;;17.08;39.89;96438.88;4909678;29;20043;-78
2023/10/01 09:45:09;;;;;;;13.73;6.80;;;;;;;16.38;41.06;96440.50;4909006;29;20110;-77
2023/10/01 09:47:34;;;;;;;14.68;7.15;;;;;;;16.67;40.59;96440.50;4912919;29;20205;-79
2023/10/01 09:50:00;;;;;;;14.82;6.72;;;;;;;17.39;38.81;96441.09;4890483;29;20399;-78
2023/10/01 09:52:30;;;;;;;16.55;7.28;;;;;;;17.36;38.82;96443.34;4891779;29;20027;-80
2023/10/01 09:55:01;;;;;;;14.88;6.50;;;;;;;17.82;38.37;96432.91;4908188;29;20405;-78
2023/10/01 09:57:27;;;;;;;12.48;6.57;;;;;;;17.48;39.83;96441.75;4909253;29;20043;-78
2023/10/01 10:00:14;;;;;;;13.93;6.85;;;;;;;17.15;40.38;96445.13;4893279;29;20087;-78
2023/10/01 10:02:40;;;;;;;14.10;6.75;;;;;;;16.66;40.17;96439.69;4916658;29;20046;-79
2023/10/01 10:05:06;;;;;;;16.05;7.22;;;;;;;17.15;39.12;96448.66;4929671;29;20056;-80
2023/10/01 10:07:32;;;;;;;14.20;6.80;;;;;;;17.08;39.88;96441.56;4909536;29;20046;-77
2023/10/01 10:09:58;;;;;;;14.18;6.50;;;;;;;17.64;39.09;96437.03;4929850;29;20056;-78
2023/10/01 10:12:33;;;;;;;12.88;6.35;;;;;;;17.70;39.25;96443.44;4931988;29;20040;-78
2023/10/01 10:14:59;;;;;;;15.43;7.38;;;;;;;17.71;39.50;96437.84;4930333;29;20043;-79
2023/10/01 10:17:38;;;;;;;16.70;7.53;;;;;;;17.49;39.36;96442.56;4920697;29;20107;-79
2023/10/01 10:23:16;;;;;;;16.00;6.60;;;;;;;16.37;42.02;96444.22;4939318;29;20152;-77
2023/10/01 10:25:43;;;;;;;16.20;7.30;;;;;;;17.09;40.03;96432.44;4934245;29;20063;-78
2023/10/01 10:28:09;;;;;;;14.75;7.30;;;;;;;17.86;39.23;96431.50;4919364;29;20057;-78
2023/10/01 10:30:40;;;;;;;13.50;5.97;;;;;;;18.03;38.80;96440.88;4921119;29;20040;-80
2023/10/01 10:33:15;;;;;;;13.95;6.65;;;;;;;18.06;38.65;96439.63;4937811;29;20030;-77
2023/10/01 10:35:50;;;;;;;12.68;6.50;;;;;;;18.08;38.92;96437.53;4938288;29;20086;-79
2023/10/01 10:38:51;;;;;;;14.38;6.63;;;;;;;17.78;38.99;96444.09;4922929;29;20509;-77
2023/10/01 10:41:17;;;;;;;11.18;6.18;;;;;;;17.04;40.94;96441.13;4885916;29;20155;-78
2023/10/01 10:43:42;;;;;;;15.07;6.68;;;;;;;17.70;39.18;96446.13;4939425;29;20083;-78
2023/10/01 10:46:09;;;;;;;15.05;7.10;;;;;;;18.05;38.26;96444.16;4921790;29;20070;-77
2023/10/01 10:48:59;;;;;;;14.45;6.80;;;;;;;18.19;38.37;96449.56;4889918;29;20089;-77
2023/10/01 10:51:45;;;;;;;16.90;7.10;;;;;;;17.46;40.20;96446.50;4889617;29;20032;-77
2023/10/01 10:54:16;;;;;;;15.20;7.40;;;;;;;17.92;39.29;96449.56;4925194;29;20836;-76
2023/10/01 10:56:42;;;;;;;13.60;7.30;;;;;;;18.55;37.32;96445.63;4903748;29;20062;-78
2023/10/01 10:59:07;;;;;;;15.60;7.38;;;;;;;17.86;38.56;96448.50;4933538;29;20043;-77
2023/10/01 11:01:45;;;;;;;14.93;7.40;;;;;;;16.69;40.89;96447.34;4909838;29;20114;-77
2023/10/01 11:04:11;;;;;;;12.85;7.00;;;;;;;17.50;39.22;96438.84;4926503;29;20020;-77
2023/10/01 11:06:40;;;;;;;14.75;7.78;;;;;;;18.15;37.40;96440.25;4926228;29;20673;-78
2023/10/01 11:09:25;;;;;;;14.45;7.05;;;;;;;18.74;37.05;96431.50;4919619;29;20097;-74
2023/10/01 11:12:06;;;;;;;13.27;6.63;;;;;;;18.77;37.04;96434.59;4920436;29;20047;-75
2023/10/01 11:14:36;;;;;;;15.40;6.88;;;;;;;18.51;37.33;96436.28;4921073;29;20138;-75
2023/10/01 11:17:01;;;;;;;16.75;7.53;;;;;;;17.39;38.83;96434.88;4929494;29;20061;-73
2023/10/01 11:19:28;;;;;;;13.27;6.88;;;;;;;18.80;37.17;96422.59;4927452;29;20047;-75
2023/10/01 11:21:59;;;;;;;15.80;6.80;;;;;;;18.51;37.82;96420.13;4925841;29;20043;-74
2023/10/01 11:24:29;;;;;;;15.60;7.57;;;;;;;17.96;37.26;96426.56;4903768;29;20074;-75
2023/10/01 11:27:20;;;;;;;14.88;6.75;;;;;;;18.38;37.51;96417.41;4886447;29;20059;-76
2023/10/01 11:29:58;;;;;;;12.68;6.28;;;;;;;18.54;37.19;96424.25;4920006;29;20055;-76
2023/10/01 11:32:58;;;;;;;15.18;7.88;;;;;;;18.27;37.23;96414.34;4922138;29;20032;-77
2023/10/01 11:35:34;;;;;;;14.75;7.00;;;;;;;18.74;36.46;96423.41;4909794;29;20042;-76
2023/10/01 11:38:00;;;;;;;15.55;7.70;;;;;;;18.53;36.91;96418.03;4889781;29;20774;-77
2023/10/01 11:43:23;;;;;;;14.77;7.40;;;;;;;18.67;36.38;96404.56;4921543;29;20063;-76
2023/10/01 11:46:18;;;;;;;13.27;6.93;;;;;;;18.75;36.22;96392.69;4902929;29;20055;-75
2023/10/01 11:48:56;;;;;;;14.52;7.40;;;;;;;18.79;36.43;96384.00;4890243;29;20052;-76
2023/10/01 11:51:30;;;;;;;15.00;7.07;;;;;;;19.78;35.02;96382.06;4909022;29;20094;-77
2023/10/01 11:57:08;;;;;;;15.65;7.18;;;;;;;19.78;34.93;96383.94;4873094;29;20606;-76
2023/10/01 11:59:41;;;;;;;11.60;6.60;;;;;;;19.19;36.60;96379.47;4928337;29;20047;-75
2023/10/01 12:02:20;;;;;;;14.68;7.40;;;;;;;20.46;34.18;96373.41;4913224;29;20504;-76
2023/10/01 12:04:49;;;;;;;13.23;6.72;;;;;;;21.50;32.76;96376.41;4927115;29;20060;-76
2023/10/01 12:07:18;;;;;;;13.98;7.05;;;;;;;21.56;32.04;96383.63;4926141;29;20043;-77
2023/10/01 12:09:51;;;;;;;16.05;7.70;;;;;;;20.27;33.82;96375.25;4929487;29;20073;-74
2023/10/01 12:12:21;;;;;;;13.30;7.05;;;;;;;19.36;35.38;96381.69;4926751;28;20839;-75
2023/10/01 12:14:53;;;;;;;13.32;7.90;;;;;;;20.33;33.42;96368.97;4916370;29;20035;-75
2023/10/01 12:17:36;;;;;;;15.05;7.53;;;;;;;20.40;33.76;96366.19;4927224;29;20912;-75
2023/10/01 12:20:03;;;;;;;13.68;7.25;;;;;;;19.93;34.71;96373.66;4932910;29;20283;-76
2023/10/01 12:22:29;;;;;;;11.93;7.10;;;;;;;18.61;36.31;96371.19;4915976;29;20043;-76
2023/10/01 12:24:59;;;;;;;16.23;7.85;;;;;;;18.62;36.20;96369.28;4913361;29;20070;-76
2023/10/01 12:27:41;;;;;;;14.23;6.95;;;;;;;20.84;33.30;96367.00;4915808;29;20509;-75
2023/10/01 12:30:27;;;;;;;12.40;6.72;;;;;;;21.19;33.46;96370.13;4914503;29;20039;-76